ADDS METAR Data INFO
IDs: Format: Raw Decoded Include TAF

Data at: 0310 UTC 20 Jul 2018

KSHD 200255Z AUTO 00000KT 10SM BKN060 19/16 A3013 RMK AO2 T01870160
KSHD 200235Z AUTO 00000KT 10SM SCT060 19/16 A3013 RMK AO2 T01890160
KSHD 200215Z AUTO 00000KT 10SM BKN060 20/16 A3013 RMK AO2 T01960156
KSHD 200155Z AUTO 00000KT 10SM SCT060 19/16 A3012 RMK AO2 T01880158
KSHD 200135Z AUTO 00000KT 10SM CLR 20/16 A3011 RMK AO2 T01990158
KSHD 200115Z AUTO 00000KT 10SM CLR 22/15 A3011 RMK AO2 T02170154
KSHD 200055Z AUTO 00000KT 10SM CLR 23/15 A3011 RMK AO2 T02260154
KSHD 200035Z AUTO 00000KT 10SM SCT060 23/15 A3010 RMK AO2 T02340150
KSHD 200015Z AUTO 00000KT 10SM SCT060 24/15 A3010 RMK AO2 T02410150
KSHD 192355Z AUTO 00000KT 10SM CLR 25/15 A3010 RMK AO2 T02460150
KSHD 192335Z AUTO 13003KT 10SM CLR 25/15 A3010 RMK AO2 T02510149
KSHD 192315Z AUTO 15004KT 10SM CLR 26/14 A3010 RMK AO2 T02580144
KSHD 192255Z AUTO 16005KT 10SM CLR 26/14 A3010 RMK AO2 T02640140
KSHD 192235Z AUTO 13004KT 10SM CLR A3009 RMK AO2
KSHD 192215Z AUTO 13005KT 10SM CLR A3009 RMK AO2
KSHD 192155Z AUTO 15005KT 10SM CLR A3009 RMK AO2
KSHD 192135Z AUTO 17004KT 10SM CLR A3010 RMK AO2
KSHD 192115Z AUTO 20005KT 10SM SCT065 A3010 RMK AO2
KSHD 192055Z AUTO 13004KT 10SM CLR A3011 RMK AO2
KSHD 192035Z AUTO 12005KT 10SM SCT065 A3011 RMK AO2
KSHD 192015Z AUTO 19003KT 10SM SCT065 A3012 RMK AO2
KSHD 191955Z AUTO 19006KT 10SM SCT065 27/13 A3012 RMK AO2 T02690125
KSHD 191935Z AUTO 18005KT 10SM SCT065 27/13 A3013 RMK AO2 T02700125
KSHD 191915Z AUTO 00000KT 10SM SCT065 27/13 A3013 RMK AO2 T02710129
KSHD 191855Z AUTO 14006KT 10SM SCT065 28/13 A3013 RMK AO2 T02760128
KSHD 191835Z AUTO 13003KT 10SM OVC065 27/13 A3013 RMK AO2 T02660127
KSHD 191815Z AUTO 00000KT 10SM BKN065 26/12 A3013 RMK AO2 T02610124
KSHD 191755Z AUTO 22004KT 10SM SCT065 A3013 RMK AO2 60009
KSHD 191735Z AUTO 11005KT 10SM BKN065 A3014 RMK AO2
KSHD 191715Z AUTO 10004KT 10SM SCT055 BKN065 A3014 RMK AO2
KSHD 191655Z AUTO 20004KT 10SM SCT060 26/13 A3015 RMK AO2 T02580130
KSHD 191635Z AUTO 00000KT 10SM BKN050 25/13 A3016 RMK AO2 T02510130
KSHD 191615Z AUTO 11006KT 10SM SCT050 26/13 A3016 RMK AO2 T02570131
KSHD 191535Z AUTO 15003KT 10SM CLR 25/14 A3017 RMK AO2 T02540137
KSHD 191515Z AUTO 00000KT 10SM CLR 24/14 A3016 RMK AO2 T02410135
KSHD 191455Z AUTO 00000KT 10SM CLR 24/14 A3017 RMK AO2 T02390136
KSHD 191435Z AUTO 00000KT 10SM CLR 23/14 A3016 RMK AO2 T02280138
KSHD 191415Z AUTO 25003KT 10SM CLR 22/15 A3016 RMK AO2 T02180145
KSHD 191355Z AUTO 16003KT 10SM CLR 21/14 A3016 RMK AO2 T02120144
KSHD 191335Z AUTO 00000KT 10SM CLR 20/14 A3016 RMK AO2 T02040143
KSHD 191315Z AUTO 00000KT 10SM CLR 20/14 A3016 RMK AO2 T01950144
KSHD 191255Z AUTO 16003KT 10SM CLR 19/15 A3016 RMK AO2 T01890151
KSHD 191235Z AUTO 00000KT 10SM CLR 18/15 A3016 RMK AO2 T01760148
KSHD 191215Z AUTO 00000KT 10SM CLR 17/14 A3015 RMK AO2 T01650144
KSHD 191155Z AUTO 00000KT 10SM CLR 16/14 A3015 RMK AO2 T01550141 10155 20115
KSHD 191135Z AUTO 00000KT 10SM CLR 15/14 A3015 RMK AO2 T01460136
KSHD 191115Z AUTO 00000KT 10SM CLR 14/13 A3014 RMK AO2 T01360131
KSHD 191055Z AUTO 00000KT 7SM CLR 12/12 A3014 RMK AO2 T01240121
KSHD 191035Z AUTO 00000KT 7SM SCT002 12/12 A3014 RMK AO2 T01240121
KSHD 191015Z AUTO 00000KT 1/4SM FG OVC002 12/11 A3013 RMK AO2 T01150112
KSHD 190955Z AUTO 00000KT 2SM BR SCT002 12/11 A3013 RMK AO2 T01190114
KSHD 190935Z AUTO 00000KT 10SM SCT002 SCT065 13/12 A3012 RMK AO2 T01250120
KSHD 190915Z AUTO 00000KT 10SM CLR 13/12 A3012 RMK AO2 T01300124
KSHD 190855Z AUTO 00000KT 10SM CLR 13/13 A3011 RMK AO2 T01310126
KSHD 190835Z AUTO 00000KT 10SM CLR 14/13 A3011 RMK AO2 T01350130
KSHD 190815Z AUTO 00000KT 10SM CLR 13/13 A3011 RMK AO2 T01330127
KSHD 190755Z AUTO 00000KT 10SM CLR 14/13 A3011 RMK AO2 T01350127
KSHD 190735Z AUTO 00000KT 10SM CLR 14/13 A3011 RMK AO2 T01410130
KSHD 190715Z AUTO 00000KT 10SM SCT065 15/14 A3011 RMK AO2 T01470136
KSHD 190655Z AUTO 00000KT 10SM BKN065 14/13 A3011 RMK AO2 T01410131
KSHD 190635Z AUTO 00000KT 10SM SCT065 14/13 A3011 RMK AO2 T01410132
KSHD 190615Z AUTO 06003KT 10SM CLR 15/13 A3011 RMK AO2 T01470131
KSHD 190555Z AUTO 00000KT 10SM SCT065 15/14 A3011 RMK AO2 T01540141 10244 20150 402810150
KSHD 190535Z AUTO 00000KT 10SM SCT065 15/14 A3011 RMK AO2 T01530139
KSHD 190515Z AUTO 00000KT 10SM CLR 16/14 A3011 RMK AO2 T01580139
KSHD 190455Z AUTO 00000KT 10SM CLR 16/14 A3010 RMK AO2 T01610140
KSHD 190435Z AUTO 00000KT 10SM CLR 16/15 A3010 RMK AO2 T01640146
KSHD 190415Z AUTO 00000KT 10SM CLR 17/15 A3009 RMK AO2 T01710145
KSHD 190355Z AUTO 00000KT 10SM SCT060 18/14 A3008 RMK AO2 T01830142
KSHD 190335Z AUTO 00000KT 10SM OVC060 18/15 A3008 RMK AO2 T01840147
KSHD 190315Z AUTO 00000KT 10SM OVC060 19/15 A3008 RMK AO2 T01900147
KSHD 190255Z AUTO 00000KT 10SM OVC060 19/15 A3008 RMK AO2 T01900148
KSHD 190235Z AUTO 33003KT 10SM OVC060 18/15 A3008 RMK AO2 T01840152
KSHD 190215Z AUTO 00000KT 10SM OVC060 19/15 A3007 RMK AO2 T01900145
KSHD 190155Z AUTO 00000KT 10SM BKN060 19/15 A3006 RMK AO2 T01850146
KSHD 190135Z AUTO 00000KT 10SM CLR 19/15 A3006 RMK AO2 T01890145
KSHD 190115Z AUTO 00000KT 10SM CLR 21/14 A3005 RMK AO2 T02070137
KSHD 190055Z AUTO 00000KT 10SM CLR 22/13 A3005 RMK AO2 T02170134
KSHD 190035Z AUTO 00000KT 10SM SCT070 23/13 A3004 RMK AO2 T02260130
KSHD 190015Z AUTO 00000KT 10SM CLR 24/13 A3004 RMK AO2 T02370129
KSHD 182355Z AUTO 06004KT 10SM CLR 25/13 A3003 RMK AO2 T02450125 10281 20245
KSHD 182335Z AUTO 05006KT 10SM CLR 26/12 A3003 RMK AO2 T02550122
KSHD 182315Z AUTO 05006KT 10SM SCT070 26/12 A3003 RMK AO2 T02580118
KSHD 182255Z AUTO 06005KT 10SM SCT070 26/12 A3003 RMK AO2 T02600119
KSHD 182235Z AUTO 03008KT 10SM CLR 26/12 A3003 RMK AO2 T02570118
KSHD 182215Z AUTO 05006KT 10SM SCT065 27/12 A3003 RMK AO2 T02690116
KSHD 182155Z AUTO 06007KT 10SM SCT065 27/12 A3003 RMK AO2 T02710117
KSHD 182135Z AUTO 05007KT 10SM CLR 27/12 A3002 RMK AO2 T02740115
KSHD 182115Z AUTO 05005KT 10SM CLR 27/12 A3003 RMK AO2 T02730116
KSHD 182055Z AUTO 03008KT 10SM CLR 27/11 A3003 RMK AO2 T02710109
KSHD 182035Z AUTO 02009G16KT 10SM SCT065 28/12 A3003 RMK AO2 T02770115
KSHD 182015Z AUTO 06007KT 020V080 10SM CLR 28/11 A3003 RMK AO2 T02810113
KSHD 181955Z AUTO 36006KT 10SM CLR 27/11 A3004 RMK AO2 T02690105
KSHD 181935Z AUTO 34009KT 10SM CLR 27/11 A3004 RMK AO2 T02720106
KSHD 181915Z AUTO 02007KT 10SM CLR 27/10 A3005 RMK AO2 T02700097
KSHD 181855Z AUTO 34005KT 10SM CLR 27/10 A3005 RMK AO2 T02710102
KSHD 181835Z AUTO 03007KT 10SM CLR 27/10 A3005 RMK AO2 T02650095
KSHD 181815Z AUTO 34008KT 310V010 10SM CLR 27/10 A3005 RMK AO2 T02660100
KSHD 181755Z AUTO 33009KT 10SM CLR 26/09 A3005 RMK AO2 T02640094 10267 20202
KSHD 181735Z AUTO 02007KT 10SM CLR 26/09 A3006 RMK AO2 T02610092
KSHD 181715Z AUTO 35009G15KT 10SM CLR 26/09 A3006 RMK AO2 T02600090
KSHD 181655Z AUTO 01009G14KT 10SM CLR 26/08 A3006 RMK AO2 T02580084
KSHD 181635Z AUTO 02011G15KT 10SM CLR 26/09 A3006 RMK AO2 T02600091
KSHD 181615Z AUTO 02013G16KT 10SM CLR 26/10 A3006 RMK AO2 T02600100
KSHD 181555Z AUTO 02009KT 10SM CLR 25/10 A3007 RMK AO2 T02510100
KSHD 181535Z AUTO 01010G14KT 10SM CLR 25/10 A3007 RMK AO2 T02500104
KSHD 181515Z AUTO 01011G17KT 10SM CLR 25/11 A3007 RMK AO2 T02450108